Flight Track Log - Related Links

Times and Time Zones

All times are in EDT time to prevent confusion due to time zone crossing. See the DAL993 flight status page for this flight to view local times or setup timezone preferences in your user account.

Time Position Orientation Groundspeed Altitude Reporting Facility
EDT Latitude Longitude Course Direction KTS MPH feet Rate Location/Type
Thu 07:33:54 PM 28.4000 -81.3000 North 170 196 900  Level Orlando TRACON
Thu 07:34:18 PM 28.3833 -81.2833 139° Southeast 172 198 1,700 1,800 Climbing Orlando TRACON
Thu 07:35:24 PM 28.3333 -81.2333 139° Southeast 264 304 3,600 2,050 Climbing Orlando TRACON
Thu 07:36:00 PM 28.7648 -81.3500 North  Level FlightAware Approximate
Thu 07:36:18 PM 28.3667 -81.1833 53° Northeast 286 329 5,800  Level Orlando TRACON
Thu 07:37:00 PM 28.8839 -81.3550 355° North  Level FlightAware Approximate
Thu 07:38:00 PM 29.0027 -81.3672 350° North  Level FlightAware Approximate
Thu 07:38:15 PM 28.5167 -81.2200 348° North 299 344 10,200  Level Jacksonville Center
Thu 07:39:00 PM 29.1208 -81.3833 North  Level FlightAware Approximate
Thu 07:39:15 PM 28.6131 -81.2514 344° North 314 361 11,500  Level Jacksonville Center
Thu 07:40:15 PM 28.7178 -81.2781 347° North 356 410 14,400 2,600 Climbing Jacksonville Center
Thu 07:41:15 PM 28.8206 -81.3094 345° North 374 430 16,700 2,200 Climbing Jacksonville Center
Thu 07:42:15 PM 28.9294 -81.3411 346° North 387 445 18,800 1,850 Climbing Jacksonville Center
Thu 07:43:15 PM 29.0406 -81.3750 345° North 403 464 20,400 1,550 Climbing Jacksonville Center
Thu 07:44:15 PM 29.1597 -81.3944 352° North 425 489 21,900 1,500 Climbing Jacksonville Center
Thu 07:45:15 PM 29.2850 -81.4044 356° North 444 511 23,400 1,450 Climbing Jacksonville Center
Thu 07:46:15 PM 29.4125 -81.4192 354° North 449 517 24,800 1,450 Climbing Jacksonville Center
Thu 07:47:15 PM 29.5253 -81.4319 354° North 454 522 26,300 1,750 Climbing Jacksonville Center
Thu 07:48:15 PM 29.6550 -81.4442 355° North 454 522 28,300 1,650 Climbing Jacksonville Center
Thu 07:49:15 PM 29.7761 -81.4544 356° North 449 517 29,600 1,300 Climbing Jacksonville Center
Thu 07:50:15 PM 29.8975 -81.4694 354° North 439 505 30,900 650 Climbing Jacksonville Center
Thu 07:51:15 PM 30.0164 -81.4797 356° North 434 499 30,900 50 Level Jacksonville Center
Thu 07:52:15 PM 30.1356 -81.4922 355° North 429 494 31,000 50 Climbing Jacksonville Center
Thu 07:53:15 PM 30.2547 -81.5025 356° North 424 488 31,000  Level Jacksonville Center
Thu 07:54:15 PM 30.3781 -81.5128 356° North 424 488 31,000  Level Jacksonville Center
Thu 07:55:15 PM 30.5033 -81.5014 North 429 494 31,000  Level Jacksonville Center
Thu 07:56:15 PM 30.6283 -81.4900 North 442 509 31,000  Level Jacksonville Center
Thu 07:57:15 PM 30.7556 -81.4808 North 447 514 31,000 50 Level Jacksonville Center
Thu 07:58:15 PM 30.8808 -81.4717 North 447 514 31,100 700 Climbing Jacksonville Center
Thu 07:59:15 PM 31.0056 -81.4311 16° North 453 521 32,400 950 Climbing Jacksonville Center
Thu 08:00:15 PM 31.1403 -81.3536 26° Northeast 464 534 33,000 300 Climbing Jacksonville Center
Thu 08:01:15 PM 31.2628 -81.2908 24° Northeast 471 542 33,000  Level Jacksonville Center
Thu 08:02:15 PM 31.3706 -81.2306 26° Northeast 477 549 33,000  Level Jacksonville Center
Thu 08:03:15 PM 31.5075 -81.1625 23° Northeast 482 555 33,000  Level Jacksonville Center
Thu 08:04:15 PM 31.6256 -81.0969 25° Northeast 477 549 33,000  Level Jacksonville Center
Thu 08:05:15 PM 31.7353 -81.0386 24° Northeast 479 551 33,000  Level Jacksonville Center
Thu 08:06:15 PM 31.8700 -80.9672 24° Northeast 479 551 33,000  Level Jacksonville Center
Thu 08:07:15 PM 31.9797 -80.9086 24° Northeast 479 551 33,000  Level Jacksonville Center
Thu 08:08:15 PM 32.1144 -80.8372 24° Northeast 479 551 33,000  Level Jacksonville Center
Thu 08:09:15 PM 32.2364 -80.7731 24° Northeast 479 551 33,000  Level Jacksonville Center
Thu 08:10:15 PM 32.3461 -80.7114 25° Northeast 479 551 33,000  Level Jacksonville Center
Thu 08:11:15 PM 32.4661 -80.6444 25° Northeast 479 551 33,000  Level Jacksonville Center
Thu 08:12:15 PM 32.5900 -80.5772 25° Northeast 479 551 33,000  Level Jacksonville Center
Thu 08:13:15 PM 32.7161 -80.5100 24° Northeast 484 557 33,000  Level Jacksonville Center
Thu 08:14:15 PM 32.8422 -80.4397 25° Northeast 484 557 33,000  Level Jacksonville Center
Thu 08:15:15 PM 32.9742 -80.3644 26° Northeast 498 573 33,000  Level Jacksonville Center
Thu 08:16:15 PM 33.0961 -80.2964 25° Northeast 498 573 33,000  Level Jacksonville Center
Thu 08:17:15 PM 33.2406 -80.2203 24° Northeast 503 579 33,000  Level Jacksonville Center
Thu 08:18:15 PM 33.3664 -80.1494 25° Northeast 503 579 33,000  Level Jacksonville Center
Thu 08:19:15 PM 33.4900 -80.0783 26° Northeast 497 572 33,000  Level Jacksonville Center
Thu 08:20:15 PM 33.6156 -80.0069 25° Northeast 497 572 33,000  Level Jacksonville Center
Thu 08:21:15 PM 33.7433 -79.9403 23° Northeast 497 572 33,000  Level Jacksonville Center
Thu 08:22:15 PM 33.8669 -79.8686 26° Northeast 497 572 33,000  Level Jacksonville Center
Thu 08:23:15 PM 33.9925 -79.7967 25° Northeast 492 566 33,000  Level Jacksonville Center
Thu 08:24:15 PM 34.1158 -79.7272 25° Northeast 492 566 33,000  Level Jacksonville Center
Thu 08:25:15 PM 34.2394 -79.6575 25° Northeast 492 566 33,000  Level Jacksonville Center
Thu 08:26:33 PM 34.3847 -79.5831 23° Northeast 478 550 33,000  Level Washington Center
Thu 08:27:34 PM 34.5058 -79.5158 25° Northeast 478 550 33,000  Level Washington Center
Thu 08:28:32 PM 34.6333 -79.4514 23° Northeast 483 556 33,000  Level Washington Center
Thu 08:29:33 PM 34.7583 -79.3864 23° Northeast 488 562 33,000  Level Washington Center
Thu 08:30:32 PM 34.8836 -79.3189 24° Northeast 488 562 33,000  Level Washington Center
Thu 08:31:34 PM 35.0108 -79.2564 22° Northeast 488 562 33,000  Level Washington Center
Thu 08:34:33 PM 35.3883 -79.0494 37° Northeast 491 565 33,000  Level Washington Center
Thu 08:35:33 PM 35.5175 -78.9808 23° Northeast 491 565 33,000  Level Washington Center
Thu 08:36:34 PM 35.6469 -78.9097 24° Northeast 491 565 33,000  Level Washington Center
Thu 08:37:32 PM 35.7739 -78.8408 24° Northeast 491 565 33,000  Level Washington Center
Thu 08:38:33 PM 35.9097 -78.7592 26° Northeast 491 565 33,000  Level Washington Center
Thu 08:39:34 PM 36.0272 -78.6561 35° Northeast 496 571 33,000  Level Washington Center
Thu 08:40:00 PM 35.9137 -78.7392 37° Northeast  Level FlightAware Approximate
Thu 08:40:33 PM 36.1425 -78.5472 37° Northeast 506 582 33,000  Level Washington Center
Thu 08:41:34 PM 36.2536 -78.4381 38° Northeast 511 588 33,000  Level Washington Center
Thu 08:42:34 PM 36.3669 -78.3289 38° Northeast 511 588 33,000  Level Washington Center
Thu 08:43:32 PM 36.4797 -78.2217 37° Northeast 511 588 33,000  Level Washington Center
Thu 08:44:32 PM 36.5908 -78.1089 39° Northeast 511 588 33,000  Level Washington Center
Thu 08:45:33 PM 36.7036 -77.9986 38° Northeast 511 588 33,000  Level Washington Center
Thu 08:46:34 PM 36.8142 -77.8906 38° Northeast 511 588 33,000  Level Washington Center
Thu 08:47:32 PM 36.9289 -77.7769 38° Northeast 506 582 33,000  Level Washington Center
Thu 08:48:33 PM 37.0414 -77.6683 38° Northeast 506 582 33,000  Level Washington Center
Thu 08:49:33 PM 37.1519 -77.5567 39° Northeast 506 582 33,000  Level Washington Center
Thu 08:50:34 PM 37.2642 -77.4419 39° Northeast 506 582 33,000  Level Washington Center
Thu 08:51:33 PM 37.3764 -77.3297 38° Northeast 506 582 33,000  Level Washington Center
Thu 08:52:33 PM 37.4906 -77.2172 38° Northeast 506 582 33,000  Level Washington Center
Thu 08:53:34 PM 37.6028 -77.1017 39° Northeast 506 582 33,000  Level Washington Center
Thu 08:54:32 PM 37.7147 -76.9883 39° Northeast 506 582 33,000  Level Washington Center
Thu 08:55:32 PM 37.8244 -76.8747 39° Northeast 506 582 33,000  Level Washington Center
Thu 08:56:33 PM 37.9381 -76.7581 39° Northeast 506 582 33,000  Level Washington Center
Thu 08:57:34 PM 38.0475 -76.6464 39° Northeast 506 582 33,000  Level Washington Center
Thu 08:58:33 PM 38.1611 -76.5292 39° Northeast 506 582 33,000  Level Washington Center
Thu 08:59:34 PM 38.2706 -76.4169 39° Northeast 506 582 33,000  Level Washington Center
Thu 09:00:32 PM 38.3836 -76.3094 37° Northeast 506 582 33,000  Level Washington Center
Thu 09:01:32 PM 38.4989 -76.2044 35° Northeast 506 582 33,000  Level Washington Center
Thu 09:02:33 PM 38.6036 -76.1097 35° Northeast 512 589 33,000 -942 Level Washington Center
Thu 09:03:33 PM 38.7167 -76.0042 36° Northeast 512 589 31,100 -2,380 Descending Washington Center
Thu 09:04:34 PM 38.8336 -75.8956 36° Northeast 512 589 28,200 -2,050 Descending Washington Center
Thu 09:05:33 PM 38.9464 -75.7919 36° Northeast 506 582 27,000 -605 Descending Washington Center
Thu 09:06:33 PM 39.0592 -75.6825 37° Northeast 500 575 27,000  Level Washington Center
Thu 09:07:34 PM 39.1697 -75.5756 37° Northeast 500 575 27,000  Level Washington Center
Thu 09:08:32 PM 39.2822 -75.4708 36° Northeast 500 575 27,000 -50 Level Washington Center
Thu 09:09:33 PM 39.3986 -75.3686 34° Northeast 500 575 26,900 -1,190 Descending Washington Center
Thu 09:10:33 PM 39.5111 -75.2686 34° Northeast 495 570 24,600 -2,331 Descending Washington Center
Thu 09:11:34 PM 39.6211 -75.1658 36° Northeast 490 564 22,200 -2,529 Descending Washington Center
Thu 09:12:34 PM 39.7353 -75.0625 35° Northeast 470 541 19,500 -2,492 Descending Washington Center
Thu 09:13:32 PM 39.8286 -74.9836 33° Northeast 454 522 17,300 -2,168 Descending Washington Center
Thu 09:14:33 PM 39.9322 -74.8825 37° Northeast 434 499 15,200 -2,314 Descending Washington Center
Thu 09:15:52 PM 40.0333 -74.7333 48° Northeast 401 461 11,900 -2,201 Descending New York TRACON
Thu 09:16:52 PM 40.1167 -74.6333 43° Northeast 387 445 10,100 -950 Descending New York TRACON
Thu 09:17:52 PM 40.1833 -74.5333 49° Northeast 390 449 10,000  Descending New York TRACON
Thu 09:18:52 PM 40.2500 -74.4333 49° Northeast 384 442 10,100  Climbing New York TRACON
Thu 09:19:52 PM 40.3333 -74.3333 42° Northeast 353 406 10,000 -550 Descending New York TRACON
Thu 09:20:52 PM 40.4000 -74.2667 37° Northeast 293 337 9,000 -1,300 Descending New York TRACON
Thu 09:21:52 PM 40.4667 -74.2000 37° Northeast 288 331 7,400 -1,350 Descending New York TRACON
Thu 09:22:52 PM 40.5167 -74.1333 45° Northeast 287 330 6,300 -983 Descending New York TRACON
Thu 09:23:48 PM 40.5833 -74.0833 30° Northeast 279 321 5,500 -1,000 Descending New York TRACON
Thu 09:24:46 PM 40.6500 -74.0333 30° Northeast 269 310 4,400 -661 Descending New York TRACON
Thu 09:25:46 PM 40.7000 -73.9500 52° Northeast 283 326 4,200 -157 Descending New York TRACON
Thu 09:26:41 PM 40.7333 -73.8667 62° Northeast 283 326 4,100 -50 Descending New York TRACON
Thu 09:27:46 PM 40.7667 -73.7667 66° East 284 327 4,100  Level New York TRACON
Thu 09:28:41 PM 40.8167 -73.7167 37° Northeast 247 284 4,100  Level New York TRACON
Thu 09:29:40 PM 40.8667 -73.6833 27° Northeast 192 221 4,100 -50 Level New York TRACON
Thu 09:30:40 PM 40.9000 -73.6500 37° Northeast 193 222 4,000  Descending New York TRACON
Thu 09:31:46 PM 40.9667 -73.6500 360° North 166 191 4,100 -48 Climbing New York TRACON
Thu 09:32:46 PM 40.9667 -73.7167 270° West 159 183 3,900 -397 Descending New York TRACON
Thu 09:33:47 PM 40.9333 -73.7500 217° Southwest 169 194 3,300 -645 Descending New York TRACON
Thu 09:34:47 PM 40.9000 -73.7833 217° Southwest 169 194 2,600 -756 Descending New York TRACON
Thu 09:35:46 PM 40.8500 -73.8167 207° Southwest 152 175 1,800 -807 Descending New York TRACON
Thu 09:36:46 PM 40.8167 -73.8333 201° Southwest 139 160 1,000 -787 Descending New York TRACON
Thu 09:37:48 PM 40.7833 -73.8667 217° Southwest 141 162 200 -774 Descending New York TRACON

Login

Don't have an account? Register now (free) for customized features, flight alerts, and more!